createdAt,value
2018-07-30T00:00:16.545Z,19.58
2018-07-30T00:01:16.583Z,19.56
2018-07-30T00:02:16.851Z,19.55
2018-07-30T00:03:17.134Z,19.55
2018-07-30T00:04:16.400Z,19.51
2018-07-30T00:05:16.713Z,19.45
2018-07-30T00:06:17.004Z,19.48
2018-07-30T00:07:16.281Z,19.42
2018-07-30T00:08:16.552Z,19.42
2018-07-30T00:09:16.825Z,19.37
2018-07-30T00:10:17.115Z,19.35
2018-07-30T00:11:17.139Z,19.31
2018-07-30T00:12:16.420Z,19.31
2018-07-30T00:13:16.684Z,19.28
2018-07-30T00:14:17.043Z,19.25
2018-07-30T00:15:16.501Z,19.25
2018-07-30T00:16:16.764Z,19.21
2018-07-30T00:17:17.024Z,19.22
2018-07-30T00:18:16.308Z,19.21
2018-07-30T00:19:16.752Z,19.21
2018-07-30T00:20:17.037Z,19.18
2018-07-30T00:21:17.089Z,19.14
2018-07-30T00:22:16.431Z,19.14
2018-07-30T00:23:16.692Z,19.14
2018-07-30T00:24:16.962Z,19.13
2018-07-30T00:25:16.235Z,19.05
2018-07-30T00:26:16.504Z,19.05
2018-07-30T00:27:17.339Z,19.04
2018-07-30T00:28:16.612Z,19.03
2018-07-30T00:29:16.884Z,19.03
2018-07-30T00:30:17.156Z,19.01
2018-07-30T00:31:16.232Z,19.00
2018-07-30T00:32:16.533Z,18.98
2018-07-30T00:33:16.808Z,18.97
2018-07-30T00:34:17.331Z,18.94
2018-07-30T00:35:16.599Z,18.94
2018-07-30T00:36:16.867Z,18.93
2018-07-30T00:37:17.168Z,18.93
2018-07-30T00:38:16.434Z,18.90
2018-07-30T00:39:16.700Z,18.87
2018-07-30T00:40:16.986Z,18.88
2018-07-30T00:41:17.028Z,18.87
2018-07-30T00:42:16.305Z,18.84
2018-07-30T00:43:16.578Z,18.83
2018-07-30T00:44:16.838Z,18.83
2018-07-30T00:45:17.108Z,18.82
2018-07-30T00:46:16.379Z,18.77
2018-07-30T00:47:16.652Z,18.75
2018-07-30T00:48:16.946Z,18.77
2018-07-30T00:49:16.374Z,18.80
2018-07-30T00:50:16.666Z,18.80
2018-07-30T00:51:16.687Z,18.80
2018-07-30T00:52:16.962Z,18.77
2018-07-30T00:53:16.229Z,18.77
2018-07-30T00:54:16.500Z,18.79
2018-07-30T00:55:16.763Z,18.79
2018-07-30T00:56:17.025Z,18.75
2018-07-30T00:57:16.286Z,18.75
2018-07-30T00:58:16.560Z,18.75
2018-07-30T00:59:16.848Z,18.70
2018-07-30T01:00:17.139Z,18.75
2018-07-30T01:01:16.232Z,18.72
2018-07-30T01:02:16.508Z,18.70
2018-07-30T01:03:16.777Z,18.67
2018-07-30T01:04:17.059Z,18.66
2018-07-30T01:05:16.550Z,18.66
2018-07-30T01:06:16.815Z,18.62
2018-07-30T01:07:17.094Z,18.63
2018-07-30T01:08:16.367Z,18.60
2018-07-30T01:09:16.641Z,18.59
2018-07-30T01:10:16.924Z,18.58
2018-07-30T01:11:16.972Z,18.55
2018-07-30T01:12:16.247Z,18.52
2018-07-30T01:13:16.513Z,18.54
2018-07-30T01:14:16.838Z,18.52
2018-07-30T01:15:17.135Z,18.49
2018-07-30T01:16:16.415Z,18.49
2018-07-30T01:17:16.682Z,18.51
2018-07-30T01:18:16.957Z,18.48
2018-07-30T01:19:16.219Z,18.45
2018-07-30T01:20:16.507Z,18.44
2018-07-30T01:21:16.548Z,18.46
2018-07-30T01:22:16.805Z,18.46
2018-07-30T01:23:17.083Z,18.44
2018-07-30T01:24:16.360Z,18.41
2018-07-30T01:25:16.643Z,18.42
2018-07-30T01:26:16.915Z,18.39
2018-07-30T01:27:17.197Z,18.35
2018-07-30T01:28:16.554Z,18.35
2018-07-30T01:29:16.817Z,18.33
2018-07-30T01:30:17.090Z,18.33
2018-07-30T01:31:17.152Z,18.28
2018-07-30T01:32:16.420Z,18.29
2018-07-30T01:33:16.870Z,18.25
2018-07-30T01:34:17.132Z,18.19
2018-07-30T01:35:16.413Z,18.18
2018-07-30T01:36:16.685Z,18.14
2018-07-30T01:37:16.939Z,18.15
2018-07-30T01:38:16.235Z,18.11
2018-07-30T01:39:16.504Z,18.11
2018-07-30T01:40:16.777Z,18.10
2018-07-30T01:41:16.833Z,18.08
2018-07-30T01:42:17.086Z,18.07
2018-07-30T01:43:16.349Z,18.04
2018-07-30T01:44:16.622Z,18.03
2018-07-30T01:45:16.890Z,18.00
2018-07-30T01:46:17.173Z,18.01
2018-07-30T01:47:16.439Z,17.98
2018-07-30T01:48:16.714Z,17.96
2018-07-30T01:49:16.989Z,17.94
2018-07-30T01:50:16.280Z,17.89
2018-07-30T01:51:16.321Z,17.90
2018-07-30T01:52:16.597Z,17.89
2018-07-30T01:53:16.869Z,17.87
2018-07-30T01:54:17.143Z,17.86
2018-07-30T01:55:16.421Z,17.83
2018-07-30T01:56:16.689Z,17.81
2018-07-30T01:57:16.962Z,17.80
2018-07-30T01:58:16.229Z,17.80
2018-07-30T01:59:16.507Z,17.80
2018-07-30T02:00:16.787Z,17.79
2018-07-30T02:01:16.825Z,17.74
2018-07-30T02:02:17.097Z,17.74
2018-07-30T02:03:16.365Z,17.73
2018-07-30T02:04:16.632Z,17.73
2018-07-30T02:05:16.904Z,17.73
2018-07-30T02:06:17.173Z,17.69
2018-07-30T02:07:16.444Z,17.65
2018-07-30T02:08:16.713Z,17.60
2018-07-30T02:09:16.983Z,17.59
2018-07-30T02:10:16.279Z,17.60
2018-07-30T02:11:16.297Z,17.54
2018-07-30T02:12:16.565Z,17.57
2018-07-30T02:13:16.825Z,17.57
2018-07-30T02:14:17.099Z,17.53
2018-07-30T02:15:16.375Z,17.53
2018-07-30T02:16:16.634Z,17.53
2018-07-30T02:17:16.902Z,17.53
2018-07-30T02:18:18.133Z,17.50
2018-07-30T02:19:16.397Z,17.49
2018-07-30T02:20:16.675Z,17.49
2018-07-30T02:21:16.720Z,17.49
2018-07-30T02:22:16.992Z,17.46
2018-07-30T02:23:16.260Z,17.45
2018-07-30T02:24:16.543Z,17.48
2018-07-30T02:25:16.811Z,17.45
2018-07-30T02:26:17.067Z,17.43
2018-07-30T02:27:16.340Z,17.42
2018-07-30T02:28:16.938Z,17.42
2018-07-30T02:29:16.213Z,17.42
2018-07-30T02:30:16.489Z,17.41
2018-07-30T02:31:16.549Z,17.39
2018-07-30T02:32:16.827Z,17.39
2018-07-30T02:33:17.385Z,17.39
2018-07-30T02:34:16.655Z,17.38
2018-07-30T02:35:16.942Z,17.36
2018-07-30T02:36:16.214Z,17.38
2018-07-30T02:37:16.503Z,17.35
2018-07-30T02:38:16.777Z,17.33
2018-07-30T02:39:17.322Z,17.33
2018-07-30T02:40:16.633Z,17.32
2018-07-30T02:41:16.643Z,17.26
2018-07-30T02:42:16.913Z,17.28
2018-07-30T02:43:17.175Z,17.28
2018-07-30T02:44:16.449Z,17.25
2018-07-30T02:45:16.762Z,17.26
2018-07-30T02:46:17.049Z,17.28
2018-07-30T02:47:16.324Z,17.28
2018-07-30T02:48:16.874Z,17.28
2018-07-30T02:49:17.151Z,17.28
2018-07-30T02:50:16.454Z,17.26
2018-07-30T02:51:16.471Z,17.29
2018-07-30T02:52:16.742Z,17.26
2018-07-30T02:53:17.025Z,17.25
2018-07-30T02:54:16.292Z,17.25
2018-07-30T02:55:16.561Z,17.22
2018-07-30T02:56:16.840Z,17.28
2018-07-30T02:57:17.115Z,17.26
2018-07-30T02:58:16.409Z,17.29
2018-07-30T02:59:16.662Z,17.32
2018-07-30T03:00:16.948Z,17.33
2018-07-30T03:01:17.004Z,17.35
2018-07-30T03:02:16.278Z,17.32
2018-07-30T03:03:16.548Z,17.32
2018-07-30T03:04:16.818Z,17.33
2018-07-30T03:05:17.635Z,17.32
2018-07-30T03:06:16.898Z,17.32
2018-07-30T03:07:17.160Z,17.29
2018-07-30T03:08:16.421Z,17.25
2018-07-30T03:09:16.728Z,17.25
2018-07-30T03:10:17.050Z,17.22
2018-07-30T03:11:17.084Z,17.22
2018-07-30T03:12:16.346Z,17.17
2018-07-30T03:13:16.618Z,17.17
2018-07-30T03:14:16.885Z,17.17
2018-07-30T03:15:17.159Z,17.15
2018-07-30T03:16:16.428Z,17.15
2018-07-30T03:17:16.702Z,17.13
2018-07-30T03:18:16.974Z,17.11
2018-07-30T03:19:16.246Z,17.11
2018-07-30T03:20:16.539Z,17.10
2018-07-30T03:21:16.583Z,17.04
2018-07-30T03:22:16.853Z,17.05
2018-07-30T03:23:17.134Z,17.03
2018-07-30T03:24:16.409Z,17.00
2018-07-30T03:25:16.678Z,16.98
2018-07-30T03:26:16.949Z,17.00
2018-07-30T03:27:16.211Z,16.98
2018-07-30T03:28:16.485Z,16.94
2018-07-30T03:29:16.761Z,16.95
2018-07-30T03:30:17.038Z,16.95
2018-07-30T03:31:17.110Z,16.88
2018-07-30T03:32:16.392Z,16.88
2018-07-30T03:33:16.660Z,16.86
2018-07-30T03:34:16.923Z,16.86
2018-07-30T03:35:18.458Z,16.86
2018-07-30T03:36:16.725Z,16.83
2018-07-30T03:37:17.001Z,16.86
2018-07-30T03:38:16.287Z,16.84
2018-07-30T03:39:16.547Z,16.86
2018-07-30T03:40:16.819Z,16.87
2018-07-30T03:41:16.875Z,16.86
2018-07-30T03:42:17.175Z,16.83
2018-07-30T03:43:16.564Z,16.84
2018-07-30T03:44:16.833Z,16.84
2018-07-30T03:45:17.109Z,16.86
2018-07-30T03:46:16.374Z,16.83
2018-07-30T03:47:16.655Z,16.83
2018-07-30T03:48:16.916Z,16.80
2018-07-30T03:49:17.179Z,16.80
2018-07-30T03:50:16.471Z,16.76
2018-07-30T03:51:16.517Z,16.78
2018-07-30T03:52:16.785Z,16.77
2018-07-30T03:53:17.065Z,16.76
2018-07-30T03:54:16.331Z,16.77
2018-07-30T03:55:16.601Z,16.76
2018-07-30T03:56:16.862Z,16.77
2018-07-30T03:57:17.133Z,16.76
2018-07-30T03:58:16.414Z,16.76
2018-07-30T03:59:16.680Z,16.76
2018-07-30T04:00:16.979Z,16.77
2018-07-30T04:01:17.010Z,16.77
2018-07-30T04:02:16.272Z,16.76
2018-07-30T04:03:16.557Z,16.77
2018-07-30T04:04:16.821Z,16.77
2018-07-30T04:05:17.103Z,16.78
2018-07-30T04:06:16.553Z,16.77
2018-07-30T04:07:17.123Z,16.78
2018-07-30T04:08:16.390Z,16.80
2018-07-30T04:09:16.665Z,16.78
2018-07-30T04:10:16.938Z,16.78
2018-07-30T04:11:16.978Z,16.78
2018-07-30T04:12:16.462Z,16.83
2018-07-30T04:13:16.729Z,16.83
2018-07-30T04:14:16.997Z,16.86
2018-07-30T04:15:16.269Z,16.86
2018-07-30T04:16:16.531Z,16.88
2018-07-30T04:17:16.800Z,16.87
2018-07-30T04:18:17.066Z,16.91
2018-07-30T04:19:16.327Z,16.94
2018-07-30T04:20:16.605Z,16.95
2018-07-30T04:21:16.634Z,16.95
2018-07-30T04:22:16.955Z,16.95
2018-07-30T04:23:16.441Z,16.95
2018-07-30T04:24:16.713Z,17.08
2018-07-30T04:25:16.993Z,17.08
2018-07-30T04:26:16.284Z,17.08
2018-07-30T04:27:16.563Z,18.54
2018-07-30T04:28:16.838Z,18.58
2018-07-30T04:29:17.107Z,18.61
2018-07-30T04:30:16.389Z,18.61
2018-07-30T04:31:16.416Z,18.64
2018-07-30T04:32:16.684Z,18.64
2018-07-30T04:33:16.952Z,18.51
2018-07-30T04:34:16.233Z,18.39
2018-07-30T04:35:16.503Z,18.42
2018-07-30T04:36:16.770Z,18.54
2018-07-30T04:37:17.041Z,17.32
2018-07-30T04:38:16.299Z,17.35
2018-07-30T04:39:16.567Z,17.35
2018-07-30T04:40:16.836Z,17.35
2018-07-30T04:41:16.893Z,18.50
2018-07-30T04:42:17.174Z,18.62
2018-07-30T04:43:16.455Z,18.62
2018-07-30T04:44:16.720Z,18.66
2018-07-30T04:45:16.984Z,18.77
2018-07-30T04:46:16.254Z,18.85
2018-07-30T04:47:16.530Z,18.95
2018-07-30T04:48:16.790Z,17.50
2018-07-30T04:49:17.090Z,17.50
2018-07-30T04:50:16.530Z,17.50
2018-07-30T04:51:16.510Z,19.19
2018-07-30T04:52:16.780Z,19.26
2018-07-30T04:53:17.047Z,19.16
2018-07-30T04:54:16.320Z,19.19
2018-07-30T04:55:16.593Z,19.23
2018-07-30T04:56:16.850Z,19.22
2018-07-30T04:57:17.122Z,19.24
2018-07-30T04:58:16.393Z,19.27
2018-07-30T04:59:16.668Z,17.63
2018-07-30T05:00:16.960Z,17.63
2018-07-30T05:01:16.995Z,17.63
2018-07-30T05:02:16.279Z,19.70
2018-07-30T05:03:16.543Z,17.73
2018-07-30T05:04:16.806Z,17.73
2018-07-30T05:05:17.070Z,17.73
2018-07-30T05:06:16.343Z,19.96
2018-07-30T05:07:16.622Z,20.00
2018-07-30T05:08:16.894Z,19.87
2018-07-30T05:09:17.165Z,19.89
2018-07-30T05:10:16.440Z,20.04
2018-07-30T05:11:16.561Z,20.08
2018-07-30T05:12:17.210Z,20.11
2018-07-30T05:13:16.485Z,18.01
2018-07-30T05:14:16.773Z,18.01
2018-07-30T05:15:17.055Z,18.11
2018-07-30T05:16:16.334Z,18.14
2018-07-30T05:17:16.604Z,18.14
2018-07-30T05:18:16.873Z,18.14
2018-07-30T05:19:17.195Z,20.78
2018-07-30T05:20:16.547Z,18.31
2018-07-30T05:21:16.597Z,18.33
2018-07-30T05:22:16.868Z,18.33
2018-07-30T05:23:17.129Z,18.33
2018-07-30T05:24:16.394Z,21.52
2018-07-30T05:25:16.661Z,18.45
2018-07-30T05:26:16.937Z,18.49
2018-07-30T05:27:17.198Z,18.52
2018-07-30T05:28:16.470Z,18.52
2018-07-30T05:29:16.743Z,18.59
2018-07-30T05:30:17.021Z,18.62
2018-07-30T05:31:17.089Z,18.65
2018-07-30T05:32:16.406Z,18.66
2018-07-30T05:33:16.678Z,18.73
2018-07-30T05:34:16.942Z,18.73
2018-07-30T05:35:16.222Z,18.80
2018-07-30T05:36:16.517Z,18.87
2018-07-30T05:37:16.885Z,18.93
2018-07-30T05:38:16.242Z,18.97
2018-07-30T05:39:16.509Z,19.05
2018-07-30T05:40:16.793Z,19.08
2018-07-30T05:41:16.834Z,19.15
2018-07-30T05:42:17.110Z,19.22
2018-07-30T05:43:16.376Z,19.22
2018-07-30T05:44:16.644Z,19.28
2018-07-30T05:45:16.906Z,19.35
2018-07-30T05:46:17.284Z,19.42
2018-07-30T05:47:16.561Z,19.42
2018-07-30T05:48:16.828Z,19.52
2018-07-30T05:49:17.098Z,19.59
2018-07-30T05:50:16.379Z,19.60
2018-07-30T05:51:16.412Z,19.62
2018-07-30T05:52:16.689Z,19.65
2018-07-30T05:53:16.964Z,19.66
2018-07-30T05:54:16.239Z,19.77
2018-07-30T05:55:16.507Z,19.83
2018-07-30T05:56:16.779Z,19.94
2018-07-30T05:57:17.050Z,19.99
2018-07-30T05:58:16.318Z,20.00
2018-07-30T05:59:16.585Z,20.07
2018-07-30T06:00:16.919Z,20.08
2018-07-30T06:01:16.962Z,20.16
2018-07-30T06:02:16.225Z,20.17
2018-07-30T06:03:16.493Z,20.24
2018-07-30T06:04:16.771Z,20.28
2018-07-30T06:05:17.047Z,20.29
2018-07-30T06:06:16.315Z,20.31
2018-07-30T06:07:16.581Z,20.41
2018-07-30T06:08:16.866Z,20.48
2018-07-30T06:09:17.154Z,20.54
2018-07-30T06:10:16.434Z,20.56
2018-07-30T06:11:16.475Z,20.59
2018-07-30T06:12:16.748Z,20.68
2018-07-30T06:13:17.013Z,20.71
2018-07-30T06:14:16.288Z,20.76
2018-07-30T06:15:16.565Z,20.76
2018-07-30T06:16:16.834Z,20.90
2018-07-30T06:17:17.101Z,20.90
2018-07-30T06:18:16.381Z,20.96
2018-07-30T06:19:16.647Z,21.00
2018-07-30T06:20:16.913Z,21.06
2018-07-30T06:21:16.971Z,21.13
2018-07-30T06:22:16.241Z,21.15
2018-07-30T06:23:16.507Z,21.27
2018-07-30T06:24:16.796Z,21.36
2018-07-30T06:25:17.071Z,21.38
2018-07-30T06:26:16.373Z,21.49
2018-07-30T06:27:16.719Z,21.51
2018-07-30T06:28:17.023Z,21.62
2018-07-30T06:29:16.378Z,21.62
2018-07-30T06:30:16.719Z,21.70
2018-07-30T06:31:16.696Z,21.73
2018-07-30T06:32:16.965Z,21.76
2018-07-30T06:33:16.235Z,21.75
2018-07-30T06:34:16.511Z,21.91
2018-07-30T06:35:16.788Z,21.85
2018-07-30T06:36:17.062Z,22.07
2018-07-30T06:37:16.335Z,22.16
2018-07-30T06:38:16.601Z,22.33
2018-07-30T06:39:16.872Z,22.37
2018-07-30T06:40:17.155Z,22.34
2018-07-30T06:41:17.204Z,22.54
2018-07-30T06:42:16.490Z,23.03
2018-07-30T06:43:16.755Z,23.22
2018-07-30T06:44:17.039Z,23.47
2018-07-30T06:45:16.334Z,23.75
2018-07-30T06:46:16.614Z,23.83
2018-07-30T06:47:16.893Z,23.91
2018-07-30T06:48:17.168Z,24.20
2018-07-30T06:49:16.437Z,24.49
2018-07-30T06:50:16.714Z,24.26
2018-07-30T06:51:16.755Z,24.66
2018-07-30T06:52:17.034Z,25.01
2018-07-30T06:53:16.373Z,24.82
2018-07-30T06:54:16.723Z,24.78
2018-07-30T06:55:16.992Z,24.94
2018-07-30T06:56:16.264Z,24.98
2018-07-30T06:57:16.537Z,25.45
2018-07-30T06:58:16.813Z,25.37
2018-07-30T06:59:17.077Z,25.66
2018-07-30T07:00:16.365Z,25.47
2018-07-30T07:01:16.428Z,25.53
2018-07-30T07:02:16.704Z,25.23
2018-07-30T07:03:17.027Z,25.29
2018-07-30T07:04:16.410Z,25.35
2018-07-30T07:05:16.683Z,25.56
2018-07-30T07:06:16.961Z,26.24
2018-07-30T07:07:16.237Z,26.39
2018-07-30T07:08:16.509Z,25.93
2018-07-30T07:09:16.777Z,25.56
2018-07-30T07:10:17.056Z,25.77
2018-07-30T07:11:17.113Z,25.62
2018-07-30T07:12:16.388Z,25.77
2018-07-30T07:13:16.660Z,25.94
2018-07-30T07:14:16.925Z,26.29
2018-07-30T07:15:17.191Z,26.31
2018-07-30T07:16:16.463Z,26.52
2018-07-30T07:17:16.751Z,26.32
2018-07-30T07:18:17.021Z,26.45
2018-07-30T07:19:16.293Z,26.56
2018-07-30T07:20:16.570Z,26.45
2018-07-30T07:21:16.687Z,26.36
2018-07-30T07:22:17.134Z,26.55
2018-07-30T07:23:16.406Z,26.79
2018-07-30T07:24:16.683Z,26.85
2018-07-30T07:25:16.954Z,26.86
2018-07-30T07:26:16.215Z,26.97
2018-07-30T07:27:16.499Z,26.77
2018-07-30T07:28:16.766Z,27.01
2018-07-30T07:29:17.040Z,27.07
2018-07-30T07:30:16.318Z,26.76
2018-07-30T07:31:16.389Z,26.48
2018-07-30T07:32:16.662Z,26.73
2018-07-30T07:33:16.925Z,26.58
2018-07-30T07:34:17.203Z,26.58
2018-07-30T07:35:16.478Z,26.86
2018-07-30T07:36:16.754Z,26.79
2018-07-30T07:37:17.035Z,26.89
2018-07-30T07:38:16.305Z,26.82
2018-07-30T07:39:16.557Z,26.91
2018-07-30T07:40:16.844Z,27.13
2018-07-30T07:41:16.877Z,27.40
2018-07-30T07:42:17.396Z,27.62
2018-07-30T07:43:16.667Z,27.63
2018-07-30T07:44:16.934Z,27.25
2018-07-30T07:45:17.209Z,27.18
2018-07-30T07:46:16.482Z,27.31
2018-07-30T07:47:16.753Z,27.40
2018-07-30T07:48:17.054Z,27.62
2018-07-30T07:49:16.370Z,27.56
2018-07-30T07:50:16.781Z,27.59
2018-07-30T07:51:16.727Z,27.70
2018-07-30T07:52:17.008Z,27.59
2018-07-30T07:53:16.292Z,27.55
2018-07-30T07:54:16.562Z,27.55
2018-07-30T07:55:16.835Z,27.63
2018-07-30T07:56:17.095Z,27.79
2018-07-30T07:57:16.369Z,27.77
2018-07-30T07:58:16.633Z,27.73
2018-07-30T07:59:16.905Z,27.73
2018-07-30T08:00:17.193Z,27.62
2018-07-30T08:01:16.241Z,27.56
2018-07-30T08:02:16.510Z,27.87
2018-07-30T08:03:16.784Z,27.99
2018-07-30T08:04:17.059Z,28.03
2018-07-30T08:05:16.334Z,28.23
2018-07-30T08:06:16.684Z,28.32
2018-07-30T08:07:17.033Z,28.34
2018-07-30T08:08:16.303Z,28.17
2018-07-30T08:09:16.570Z,28.31
2018-07-30T08:10:16.858Z,28.28
2018-07-30T08:11:16.879Z,28.27
2018-07-30T08:12:17.165Z,28.21
2018-07-30T08:13:16.435Z,28.48
2018-07-30T08:14:16.734Z,28.65
2018-07-30T08:15:17.029Z,28.62
2018-07-30T08:16:16.371Z,28.81
2018-07-30T08:17:16.767Z,28.62
2018-07-30T08:18:17.039Z,28.93
2018-07-30T08:19:16.316Z,29.03
2018-07-30T08:20:16.598Z,29.30
2018-07-30T08:21:16.635Z,29.29
2018-07-30T08:22:16.960Z,29.34
2018-07-30T08:23:16.417Z,29.26
2018-07-30T08:24:16.700Z,29.51
2018-07-30T08:25:16.972Z,29.52
2018-07-30T08:26:16.261Z,29.51
2018-07-30T08:27:16.536Z,29.50
2018-07-30T08:28:16.808Z,29.13
2018-07-30T08:29:17.088Z,28.85
2018-07-30T08:30:16.370Z,28.85
2018-07-30T08:31:16.410Z,28.93
2018-07-30T08:32:16.678Z,29.17
2018-07-30T08:33:16.950Z,29.11
2018-07-30T08:34:16.245Z,28.76
2018-07-30T08:35:16.519Z,28.81
2018-07-30T08:36:16.795Z,28.76
2018-07-30T08:37:17.076Z,28.82
2018-07-30T08:38:16.351Z,29.07
2018-07-30T08:39:16.613Z,29.11
2018-07-30T08:40:16.891Z,28.96
2018-07-30T08:41:16.934Z,28.93
2018-07-30T08:42:17.217Z,28.89
2018-07-30T08:43:16.626Z,28.96
2018-07-30T08:44:16.907Z,28.87
2018-07-30T08:45:17.189Z,28.87
2018-07-30T08:46:16.453Z,28.96
2018-07-30T08:47:16.724Z,29.09
2018-07-30T08:48:16.991Z,29.14
2018-07-30T08:49:16.260Z,29.14
2018-07-30T08:50:16.577Z,29.11
2018-07-30T08:51:16.601Z,29.11
2018-07-30T08:52:16.877Z,29.17
2018-07-30T08:53:17.138Z,29.17
2018-07-30T08:54:16.399Z,29.26
2018-07-30T08:55:16.661Z,29.26
2018-07-30T08:56:16.945Z,29.67
2018-07-30T08:57:16.241Z,29.54
2018-07-30T08:58:16.502Z,29.38
2018-07-30T08:59:16.773Z,29.40
2018-07-30T09:00:17.052Z,29.48
2018-07-30T09:01:17.101Z,29.45
2018-07-30T09:02:16.382Z,29.38
2018-07-30T09:03:16.659Z,29.17
2018-07-30T09:04:16.925Z,29.18
2018-07-30T09:05:17.202Z,29.58
2018-07-30T09:06:16.473Z,29.51
2018-07-30T09:07:16.899Z,29.48
2018-07-30T09:08:16.475Z,29.40
2018-07-30T09:09:16.760Z,29.59
2018-07-30T09:10:17.046Z,29.58
2018-07-30T09:11:17.078Z,29.52
2018-07-30T09:12:16.355Z,29.65
2018-07-30T09:13:16.620Z,29.50
2018-07-30T09:14:16.887Z,29.81
2018-07-30T09:15:17.177Z,29.47
2018-07-30T09:16:16.454Z,29.44
2018-07-30T09:17:16.797Z,29.48
2018-07-30T09:18:16.255Z,29.40
2018-07-30T09:19:16.625Z,29.79
2018-07-30T09:20:16.927Z,29.79
2018-07-30T09:21:16.954Z,29.71
2018-07-30T09:22:16.225Z,29.69
2018-07-30T09:23:16.497Z,29.64
2018-07-30T09:24:16.780Z,29.51
2018-07-30T09:25:17.061Z,29.54
2018-07-30T09:26:16.333Z,29.58
2018-07-30T09:27:16.602Z,29.48
2018-07-30T09:28:16.885Z,29.38
2018-07-30T09:29:17.165Z,29.42
2018-07-30T09:30:16.439Z,29.64
2018-07-30T09:31:16.466Z,29.62
2018-07-30T09:32:16.750Z,29.68
2018-07-30T09:33:17.341Z,29.78
2018-07-30T09:34:16.625Z,29.86
2018-07-30T09:35:16.908Z,29.98
2018-07-30T09:36:17.183Z,30.19
2018-07-30T09:37:16.448Z,30.19
2018-07-30T09:38:16.718Z,30.05
2018-07-30T09:39:17.062Z,29.76
2018-07-30T09:40:16.538Z,29.79
2018-07-30T09:41:16.568Z,29.91
2018-07-30T09:42:16.845Z,29.96
2018-07-30T09:43:17.121Z,29.96
2018-07-30T09:44:16.391Z,30.00
2018-07-30T09:45:16.683Z,29.71
2018-07-30T09:46:16.948Z,29.65
2018-07-30T09:47:16.215Z,29.52
2018-07-30T09:48:16.509Z,29.48
2018-07-30T09:49:16.787Z,29.48
2018-07-30T09:50:17.057Z,29.45
2018-07-30T09:51:17.119Z,29.44
2018-07-30T09:52:16.393Z,29.37
2018-07-30T09:53:16.664Z,29.37
2018-07-30T09:54:16.925Z,29.29
2018-07-30T09:55:17.197Z,29.07
2018-07-30T09:56:16.475Z,29.00
2018-07-30T09:57:16.788Z,29.06
2018-07-30T09:58:17.074Z,29.23
2018-07-30T09:59:16.348Z,29.36
2018-07-30T10:00:16.617Z,29.50
2018-07-30T10:01:16.679Z,30.24
2018-07-30T10:02:16.962Z,30.26
2018-07-30T10:03:16.227Z,29.82
2018-07-30T10:04:16.490Z,29.78
2018-07-30T10:05:16.764Z,29.72
2018-07-30T10:06:17.082Z,29.78
2018-07-30T10:07:16.530Z,29.78
2018-07-30T10:08:16.798Z,29.69
2018-07-30T10:09:17.092Z,29.61
2018-07-30T10:10:16.380Z,29.50
2018-07-30T10:11:16.424Z,29.54
2018-07-30T10:12:16.690Z,29.45
2018-07-30T10:13:17.011Z,29.36
2018-07-30T10:14:16.297Z,29.18
2018-07-30T10:15:16.565Z,29.47
2018-07-30T10:16:16.836Z,29.44
2018-07-30T10:17:17.099Z,29.44
2018-07-30T10:18:16.417Z,29.73
2018-07-30T10:19:16.783Z,29.79
2018-07-30T10:20:17.071Z,29.96
2018-07-30T10:21:17.113Z,30.05
2018-07-30T10:22:16.387Z,30.17
2018-07-30T10:23:16.968Z,30.34
2018-07-30T10:24:16.498Z,30.34
2018-07-30T10:25:16.790Z,30.41
2018-07-30T10:26:17.063Z,30.47
2018-07-30T10:27:16.354Z,30.64
2018-07-30T10:28:16.679Z,30.98
2018-07-30T10:29:17.008Z,30.65
2018-07-30T10:30:16.318Z,30.64
2018-07-30T10:31:16.384Z,30.64
2018-07-30T10:32:16.648Z,30.75
2018-07-30T10:33:16.910Z,30.96
2018-07-30T10:34:17.189Z,31.06
2018-07-30T10:35:16.499Z,30.77
2018-07-30T10:36:16.774Z,30.68
2018-07-30T10:37:17.056Z,30.58
2018-07-30T10:38:16.497Z,30.68
2018-07-30T10:39:17.131Z,30.55
2018-07-30T10:40:16.430Z,30.64
2018-07-30T10:41:16.451Z,30.65
2018-07-30T10:42:16.733Z,30.60
2018-07-30T10:43:17.008Z,30.93
2018-07-30T10:44:16.294Z,30.79
2018-07-30T10:45:16.551Z,30.51
2018-07-30T10:46:16.844Z,30.71
2018-07-30T10:47:17.141Z,30.77
2018-07-30T10:48:16.403Z,30.82
2018-07-30T10:49:16.668Z,30.77
2018-07-30T10:50:16.950Z,30.99
2018-07-30T10:51:16.981Z,30.93
2018-07-30T10:52:16.249Z,30.99
2018-07-30T10:53:16.519Z,30.95
2018-07-30T10:54:16.786Z,30.95
2018-07-30T10:55:17.061Z,30.91
2018-07-30T10:56:16.311Z,30.91
2018-07-30T10:57:16.582Z,30.93
2018-07-30T10:58:16.852Z,31.26
2018-07-30T10:59:17.123Z,31.37
2018-07-30T11:00:16.429Z,31.50
2018-07-30T11:01:16.476Z,31.80
2018-07-30T11:02:16.745Z,32.23
2018-07-30T11:03:17.008Z,32.12
2018-07-30T11:04:16.272Z,31.83
2018-07-30T11:05:16.539Z,31.63
2018-07-30T11:06:16.803Z,31.54
2018-07-30T11:07:17.053Z,31.57
2018-07-30T11:08:16.322Z,31.44
2018-07-30T11:09:16.585Z,31.75
2018-07-30T11:10:16.862Z,31.99
2018-07-30T11:11:16.921Z,31.73
2018-07-30T11:12:17.192Z,31.70
2018-07-30T11:13:16.458Z,31.68
2018-07-30T11:14:16.731Z,31.70
2018-07-30T11:15:16.989Z,31.73
2018-07-30T11:16:16.259Z,31.89
2018-07-30T11:17:16.529Z,31.96
2018-07-30T11:18:16.797Z,32.12
2018-07-30T11:19:17.075Z,32.05
2018-07-30T11:20:16.353Z,32.28
2018-07-30T11:21:16.398Z,32.35
2018-07-30T11:22:16.665Z,32.38
2018-07-30T11:23:16.934Z,32.14
2018-07-30T11:24:17.191Z,32.38
2018-07-30T11:25:16.482Z,31.70
2018-07-30T11:26:16.768Z,31.77
2018-07-30T11:27:17.031Z,32.02
2018-07-30T11:28:16.374Z,32.25
2018-07-30T11:29:16.834Z,32.35
2018-07-30T11:30:17.113Z,31.92
2018-07-30T11:31:17.158Z,31.84
2018-07-30T11:32:16.424Z,31.83
2018-07-30T11:33:16.688Z,31.67
2018-07-30T11:34:16.965Z,31.83
2018-07-30T11:35:16.234Z,31.83
2018-07-30T11:36:16.498Z,31.84
2018-07-30T11:37:16.767Z,32.07
2018-07-30T11:38:17.037Z,32.31
2018-07-30T11:39:16.324Z,32.31
2018-07-30T11:40:16.621Z,31.95
2018-07-30T11:41:16.673Z,31.85
2018-07-30T11:42:16.938Z,31.95
2018-07-30T11:43:17.196Z,31.61
2018-07-30T11:44:16.471Z,31.75
2018-07-30T11:45:16.760Z,31.89
2018-07-30T11:46:17.032Z,31.89
2018-07-30T11:47:16.302Z,31.63
2018-07-30T11:48:16.607Z,31.36
2018-07-30T11:49:16.918Z,31.34
2018-07-30T11:50:17.208Z,31.23
2018-07-30T11:51:16.247Z,31.49
2018-07-30T11:52:16.512Z,31.50
2018-07-30T11:53:16.781Z,31.39
2018-07-30T11:54:17.081Z,31.39
2018-07-30T11:55:16.399Z,31.47
2018-07-30T11:56:16.661Z,31.59
2018-07-30T11:57:16.933Z,31.56
2018-07-30T11:58:16.200Z,31.59
2018-07-30T11:59:16.464Z,31.60
2018-07-30T12:00:16.743Z,31.87
2018-07-30T12:01:16.815Z,31.99
2018-07-30T12:02:17.114Z,31.98
2018-07-30T12:03:16.382Z,32.02
2018-07-30T12:04:16.664Z,32.18
2018-07-30T12:05:16.929Z,32.01
2018-07-30T12:06:17.190Z,31.75
2018-07-30T12:07:16.454Z,31.51
2018-07-30T12:08:16.725Z,31.63
2018-07-30T12:09:16.989Z,31.63
2018-07-30T12:10:16.270Z,31.70
2018-07-30T12:11:16.325Z,31.88
2018-07-30T12:12:16.630Z,31.88
2018-07-30T12:13:16.886Z,31.91
2018-07-30T12:14:17.161Z,31.85
2018-07-30T12:15:16.449Z,31.78
2018-07-30T12:16:16.715Z,31.95
2018-07-30T12:17:16.983Z,31.95
2018-07-30T12:18:16.257Z,32.50
2018-07-30T12:19:16.526Z,32.62
2018-07-30T12:20:16.797Z,32.66
2018-07-30T12:21:16.855Z,32.69
2018-07-30T12:22:17.120Z,32.59
2018-07-30T12:23:16.394Z,32.53
2018-07-30T12:24:16.674Z,32.65
2018-07-30T12:25:16.952Z,32.94
2018-07-30T12:26:16.228Z,32.43
2018-07-30T12:27:16.499Z,32.32
2018-07-30T12:28:16.790Z,32.44
2018-07-30T12:29:17.063Z,32.33
2018-07-30T12:30:16.484Z,32.42
2018-07-30T12:31:16.389Z,32.40
2018-07-30T12:32:16.658Z,32.58
2018-07-30T12:33:16.929Z,32.32
2018-07-30T12:34:17.197Z,32.42
2018-07-30T12:35:16.484Z,32.84
2018-07-30T12:36:16.881Z,33.01
2018-07-30T12:37:16.290Z,33.10
2018-07-30T12:38:16.946Z,33.00
2018-07-30T12:39:16.218Z,32.94
2018-07-30T12:40:16.496Z,33.11
2018-07-30T12:41:16.530Z,33.42
2018-07-30T12:42:16.825Z,33.42
2018-07-30T12:43:17.098Z,33.24
2018-07-30T12:44:16.381Z,33.34
2018-07-30T12:45:16.652Z,32.98
2018-07-30T12:46:16.918Z,32.98
2018-07-30T12:47:17.202Z,32.98
2018-07-30T12:48:16.478Z,32.88
2018-07-30T12:49:16.763Z,32.87
2018-07-30T12:50:17.035Z,32.63
2018-07-30T12:51:17.072Z,32.55
2018-07-30T12:52:16.353Z,32.08